sensor_id;sensor_type;location;lat;lon;timestamp;pressure;altitude;pressure_sealevel;temperature;humidity
28354;BME280;15603;50.878;8.036;2023-09-19T00:00:36;145080.06;;;7.69;100.00
28354;BME280;15603;50.878;8.036;2023-09-19T00:03:03;145104.31;;;7.79;100.00
28354;BME280;15603;50.878;8.036;2023-09-19T00:05:36;145104.31;;;7.79;100.00
28354;BME280;15603;50.878;8.036;2023-09-19T00:08:12;145128.59;;;7.89;100.00
28354;BME280;15603;50.878;8.036;2023-09-19T00:10:43;145029.13;;;7.47;100.00
28354;BME280;15603;50.878;8.036;2023-09-19T00:13:10;145023.03;;;7.44;100.00
28354;BME280;15603;50.878;8.036;2023-09-19T00:15:46;145050.94;;;7.56;100.00
28354;BME280;15603;50.878;8.036;2023-09-19T00:18:20;145002.44;;;7.36;100.00
28354;BME280;15603;50.878;8.036;2023-09-19T00:20:50;144958.78;;;7.17;100.00
28354;BME280;15603;50.878;8.036;2023-09-19T00:23:19;145003.66;;;7.36;100.00
28354;BME280;15603;50.878;8.036;2023-09-19T00:25:47;145063.06;;;7.61;100.00
28354;BME280;15603;50.878;8.036;2023-09-19T00:28:15;145055.81;;;7.58;100.00
28354;BME280;15603;50.878;8.036;2023-09-19T00:30:43;145104.31;;;7.79;100.00
28354;BME280;15603;50.878;8.036;2023-09-19T00:33:11;145092.22;;;7.74;100.00
28354;BME280;15603;50.878;8.036;2023-09-19T00:35:52;145041.22;;;7.52;100.00
28354;BME280;15603;50.878;8.036;2023-09-19T00:38:21;145048.53;;;7.55;100.00
28354;BME280;15603;50.878;8.036;2023-09-19T00:40:51;145009.69;;;7.39;100.00
28354;BME280;15603;50.878;8.036;2023-09-19T00:43:22;144975.75;;;7.24;100.00
28354;BME280;15603;50.878;8.036;2023-09-19T00:45:54;145026.69;;;7.46;100.00
28354;BME280;15603;50.878;8.036;2023-09-19T00:48:22;145017.00;;;7.42;100.00
28354;BME280;15603;50.878;8.036;2023-09-19T00:50:50;144927.25;;;7.04;100.00
28354;BME280;15603;50.878;8.036;2023-09-19T00:53:20;144956.38;;;7.16;100.00
28354;BME280;15603;50.878;8.036;2023-09-19T00:55:48;144951.53;;;7.14;100.00
28354;BME280;15603;50.878;8.036;2023-09-19T00:58:17;144841.19;;;6.67;100.00
28354;BME280;15603;50.878;8.036;2023-09-19T01:00:48;144866.66;;;6.78;100.00
28354;BME280;15603;50.878;8.036;2023-09-19T01:03:15;144877.53;;;6.83;100.00
28354;BME280;15603;50.878;8.036;2023-09-19T01:05:43;144847.28;;;6.70;100.00
28354;BME280;15603;50.878;8.036;2023-09-19T01:08:11;144909.06;;;6.96;100.00
28354;BME280;15603;50.878;8.036;2023-09-19T01:10:51;144916.34;;;6.99;100.00
28354;BME280;15603;50.878;8.036;2023-09-19T01:13:31;144903.00;;;6.94;100.00
28354;BME280;15603;50.878;8.036;2023-09-19T01:16:15;144871.50;;;6.80;100.00
28354;BME280;15603;50.878;8.036;2023-09-19T01:18:55;144856.97;;;6.74;100.00
28354;BME280;15603;50.878;8.036;2023-09-19T01:24:22;144767.25;;;6.36;100.00
28354;BME280;15603;50.878;8.036;2023-09-19T01:29:49;144796.31;;;6.48;100.00
28354;BME280;15603;50.878;8.036;2023-09-19T01:32:20;144813.31;;;6.56;100.00
28354;BME280;15603;50.878;8.036;2023-09-19T01:34:54;144827.84;;;6.62;100.00
28354;BME280;15603;50.878;8.036;2023-09-19T01:37:23;144793.94;;;6.47;100.00
28354;BME280;15603;50.878;8.036;2023-09-19T01:45:03;144825.44;;;6.61;100.00
28354;BME280;15603;50.878;8.036;2023-09-19T01:48:01;144798.78;;;6.49;100.00
28354;BME280;15603;50.878;8.036;2023-09-19T01:50:32;144816.97;;;6.57;100.00
28354;BME280;15603;50.878;8.036;2023-09-19T01:53:19;144779.41;;;6.41;100.00
28354;BME280;15603;50.878;8.036;2023-09-19T01:55:50;144784.25;;;6.43;100.00
28354;BME280;15603;50.878;8.036;2023-09-19T01:58:29;144871.50;;;6.80;100.00
28354;BME280;15603;50.878;8.036;2023-09-19T02:01:00;144799.97;;;6.50;100.00
28354;BME280;15603;50.878;8.036;2023-09-19T02:03:29;144915.16;;;6.99;100.00
28354;BME280;15603;50.878;8.036;2023-09-19T02:05:56;144922.41;;;7.02;100.00
28354;BME280;15603;50.878;8.036;2023-09-19T02:08:23;144869.06;;;6.79;100.00
28354;BME280;15603;50.878;8.036;2023-09-19T02:10:51;144854.50;;;6.73;100.00
28354;BME280;15603;50.878;8.036;2023-09-19T02:13:20;144924.84;;;7.03;100.00
28354;BME280;15603;50.878;8.036;2023-09-19T02:15:48;144859.34;;;6.75;100.00
28354;BME280;15603;50.878;8.036;2023-09-19T02:18:16;144910.31;;;6.97;100.00
28354;BME280;15603;50.878;8.036;2023-09-19T02:20:44;144869.06;;;6.79;100.00
28354;BME280;15603;50.878;8.036;2023-09-19T02:23:13;144886.03;;;6.86;100.00
28354;BME280;15603;50.878;8.036;2023-09-19T02:25:40;144886.03;;;6.86;100.00
28354;BME280;15603;50.878;8.036;2023-09-19T02:28:08;144873.94;;;6.81;100.00
28354;BME280;15603;50.878;8.036;2023-09-19T02:30:36;144938.19;;;7.08;100.00
28354;BME280;15603;50.878;8.036;2023-09-19T02:33:04;144898.16;;;6.92;100.00
28354;BME280;15603;50.878;8.036;2023-09-19T02:35:31;144892.13;;;6.89;100.00
28354;BME280;15603;50.878;8.036;2023-09-19T02:38:03;144883.63;;;6.85;100.00
28354;BME280;15603;50.878;8.036;2023-09-19T02:40:34;144883.63;;;6.85;100.00
28354;BME280;15603;50.878;8.036;2023-09-19T02:43:04;144864.22;;;6.77;100.00
28354;BME280;15603;50.878;8.036;2023-09-19T02:45:31;144911.50;;;6.97;100.00
28354;BME280;15603;50.878;8.036;2023-09-19T02:48:00;144895.72;;;6.91;100.00
28354;BME280;15603;50.878;8.036;2023-09-19T02:50:30;144843.63;;;6.68;100.00
28354;BME280;15603;50.878;8.036;2023-09-19T02:52:57;144867.84;;;6.79;100.00
28354;BME280;15603;50.878;8.036;2023-09-19T02:55:24;144854.50;;;6.73;100.00
28354;BME280;15603;50.878;8.036;2023-09-19T02:57:53;144911.50;;;6.97;100.00
28354;BME280;15603;50.878;8.036;2023-09-19T03:00:24;144939.38;;;7.09;100.00
28354;BME280;15603;50.878;8.036;2023-09-19T03:02:54;144930.91;;;7.05;100.00
28354;BME280;15603;50.878;8.036;2023-09-19T03:05:23;144859.34;;;6.75;100.00
28354;BME280;15603;50.878;8.036;2023-09-19T03:07:51;144836.34;;;6.65;100.00
28354;BME280;15603;50.878;8.036;2023-09-19T03:10:20;144831.50;;;6.63;100.00
28354;BME280;15603;50.878;8.036;2023-09-19T03:12:48;144881.19;;;6.84;100.00
28354;BME280;15603;50.878;8.036;2023-09-19T03:15:17;144808.47;;;6.54;100.00
28354;BME280;15603;50.878;8.036;2023-09-19T03:17:47;144818.16;;;6.58;100.00
28354;BME280;15603;50.878;8.036;2023-09-19T03:20:19;144898.16;;;6.92;100.00
28354;BME280;15603;50.878;8.036;2023-09-19T03:22:48;144895.72;;;6.91;100.00
28354;BME280;15603;50.878;8.036;2023-09-19T03:25:16;144869.06;;;6.79;100.00
28354;BME280;15603;50.878;8.036;2023-09-19T03:27:47;144910.31;;;6.97;100.00
28354;BME280;15603;50.878;8.036;2023-09-19T03:30:14;144934.53;;;7.07;100.00
28354;BME280;15603;50.878;8.036;2023-09-19T03:32:46;144890.88;;;6.88;100.00
28354;BME280;15603;50.878;8.036;2023-09-19T03:35:14;144854.50;;;6.73;100.00
28354;BME280;15603;50.878;8.036;2023-09-19T03:37:42;144912.72;;;6.98;100.00
28354;BME280;15603;50.878;8.036;2023-09-19T03:40:10;144892.13;;;6.89;100.00
28354;BME280;15603;50.878;8.036;2023-09-19T03:42:39;144890.88;;;6.88;100.00
28354;BME280;15603;50.878;8.036;2023-09-19T03:45:08;144856.97;;;6.74;100.00
28354;BME280;15603;50.878;8.036;2023-09-19T03:47:42;144736.97;;;6.23;100.00
28354;BME280;15603;50.878;8.036;2023-09-19T03:50:10;144756.38;;;6.32;100.00
28354;BME280;15603;50.878;8.036;2023-09-19T03:52:45;144772.09;;;6.38;100.00
28354;BME280;15603;50.878;8.036;2023-09-19T03:55:12;144689.72;;;6.03;100.00
28354;BME280;15603;50.878;8.036;2023-09-19T03:57:40;144762.41;;;6.34;100.00
28354;BME280;15603;50.878;8.036;2023-09-19T04:00:09;144619.44;;;5.74;100.00
28354;BME280;15603;50.878;8.036;2023-09-19T04:02:40;144764.88;;;6.35;100.00
28354;BME280;15603;50.878;8.036;2023-09-19T04:05:08;144720.03;;;6.16;100.00
28354;BME280;15603;50.878;8.036;2023-09-19T04:07:36;144774.56;;;6.39;100.00
28354;BME280;15603;50.878;8.036;2023-09-19T04:10:04;144706.69;;;6.11;100.00
28354;BME280;15603;50.878;8.036;2023-09-19T04:12:31;144806.06;;;6.53;100.00
28354;BME280;15603;50.878;8.036;2023-09-19T04:15:00;144723.63;;;6.18;100.00
28354;BME280;15603;50.878;8.036;2023-09-19T04:17:28;144769.72;;;6.37;100.00
28354;BME280;15603;50.878;8.036;2023-09-19T04:19:55;144747.88;;;6.28;100.00
28354;BME280;15603;50.878;8.036;2023-09-19T04:22:22;144643.66;;;5.84;100.00
28354;BME280;15603;50.878;8.036;2023-09-19T04:24:50;144738.19;;;6.24;100.00
28354;BME280;15603;50.878;8.036;2023-09-19T04:27:17;144769.72;;;6.37;100.00
28354;BME280;15603;50.878;8.036;2023-09-19T04:29:46;144633.97;;;5.80;100.00
28354;BME280;15603;50.878;8.036;2023-09-19T04:32:13;144762.41;;;6.34;100.00
28354;BME280;15603;50.878;8.036;2023-09-19T04:34:40;144653.34;;;5.88;100.00
28354;BME280;15603;50.878;8.036;2023-09-19T04:37:07;144709.09;;;6.12;100.00
28354;BME280;15603;50.878;8.036;2023-09-19T04:39:34;144693.38;;;6.05;100.00
28354;BME280;15603;50.878;8.036;2023-09-19T04:42:01;144681.25;;;6.00;100.00
28354;BME280;15603;50.878;8.036;2023-09-19T04:44:28;144757.56;;;6.32;100.00
28354;BME280;15603;50.878;8.036;2023-09-19T04:46:56;144713.94;;;6.14;100.00
28354;BME280;15603;50.878;8.036;2023-09-19T04:49:23;144709.09;;;6.12;100.00
28354;BME280;15603;50.878;8.036;2023-09-19T04:51:51;144680.03;;;5.99;100.00
28354;BME280;15603;50.878;8.036;2023-09-19T04:54:18;144728.50;;;6.20;100.00
28354;BME280;15603;50.878;8.036;2023-09-19T04:56:46;144707.91;;;6.11;100.00
28354;BME280;15603;50.878;8.036;2023-09-19T04:59:13;144718.78;;;6.16;100.00
28354;BME280;15603;50.878;8.036;2023-09-19T05:01:41;144699.41;;;6.07;100.00
28354;BME280;15603;50.878;8.036;2023-09-19T05:04:08;144684.88;;;6.01;100.00
28354;BME280;15603;50.878;8.036;2023-09-19T05:06:36;144699.41;;;6.07;100.00
28354;BME280;15603;50.878;8.036;2023-09-19T05:09:03;144699.41;;;6.07;100.00
28354;BME280;15603;50.878;8.036;2023-09-19T05:11:32;144721.22;;;6.17;100.00
28354;BME280;15603;50.878;8.036;2023-09-19T05:14:00;144688.53;;;6.03;100.00
28354;BME280;15603;50.878;8.036;2023-09-19T05:16:30;144659.38;;;5.90;100.00
28354;BME280;15603;50.878;8.036;2023-09-19T05:19:01;144697.00;;;6.06;100.00
28354;BME280;15603;50.878;8.036;2023-09-19T05:21:30;144666.66;;;5.94;100.00
28354;BME280;15603;50.878;8.036;2023-09-19T05:23:57;144624.28;;;5.76;100.00
28354;BME280;15603;50.878;8.036;2023-09-19T05:26:25;144663.03;;;5.92;100.00
28354;BME280;15603;50.878;8.036;2023-09-19T05:28:52;144675.19;;;5.97;100.00
28354;BME280;15603;50.878;8.036;2023-09-19T05:31:20;144680.03;;;5.99;100.00
28354;BME280;15603;50.878;8.036;2023-09-19T05:33:47;144709.09;;;6.12;100.00
28354;BME280;15603;50.878;8.036;2023-09-19T05:36:14;144602.47;;;5.66;100.00
28354;BME280;15603;50.878;8.036;2023-09-19T05:38:43;144686.09;;;6.02;100.00
28354;BME280;15603;50.878;8.036;2023-09-19T05:41:11;144621.84;;;5.75;100.00
28354;BME280;15603;50.878;8.036;2023-09-19T05:43:40;144700.59;;;6.08;100.00
28354;BME280;15603;50.878;8.036;2023-09-19T05:46:09;144680.03;;;5.99;100.00
28354;BME280;15603;50.878;8.036;2023-09-19T05:48:36;144693.38;;;6.05;100.00
28354;BME280;15603;50.878;8.036;2023-09-19T05:51:04;144680.03;;;5.99;100.00
28354;BME280;15603;50.878;8.036;2023-09-19T05:53:31;144726.06;;;6.19;100.00
28354;BME280;15603;50.878;8.036;2023-09-19T05:55:58;144711.53;;;6.13;100.00
28354;BME280;15603;50.878;8.036;2023-09-19T05:58:25;144736.97;;;6.23;100.00
28354;BME280;15603;50.878;8.036;2023-09-19T06:00:52;144735.75;;;6.23;100.00
28354;BME280;15603;50.878;8.036;2023-09-19T06:03:19;144676.41;;;5.98;100.00
28354;BME280;15603;50.878;8.036;2023-09-19T06:05:47;144747.88;;;6.28;100.00
28354;BME280;15603;50.878;8.036;2023-09-19T06:08:16;144759.97;;;6.33;100.00
28354;BME280;15603;50.878;8.036;2023-09-19T06:10:43;144770.91;;;6.38;100.00
28354;BME280;15603;50.878;8.036;2023-09-19T06:13:10;144784.25;;;6.43;100.00
28354;BME280;15603;50.878;8.036;2023-09-19T06:15:38;144806.06;;;6.53;100.00
28354;BME280;15603;50.878;8.036;2023-09-19T06:18:10;144796.31;;;6.48;100.00
28354;BME280;15603;50.878;8.036;2023-09-19T06:20:41;144838.78;;;6.66;100.00
28354;BME280;15603;50.878;8.036;2023-09-19T06:23:12;144740.59;;;6.25;100.00
28354;BME280;15603;50.878;8.036;2023-09-19T06:25:39;144795.13;;;6.48;100.00
28354;BME280;15603;50.878;8.036;2023-09-19T06:28:07;144856.97;;;6.74;100.00
28354;BME280;15603;50.878;8.036;2023-09-19T06:30:38;144871.50;;;6.80;100.00
28354;BME280;15603;50.878;8.036;2023-09-19T06:33:09;144854.50;;;6.73;100.00
28354;BME280;15603;50.878;8.036;2023-09-19T06:35:38;144859.34;;;6.75;100.00
28354;BME280;15603;50.878;8.036;2023-09-19T06:38:06;144871.50;;;6.80;100.00
28354;BME280;15603;50.878;8.036;2023-09-19T06:40:35;144880.00;;;6.84;100.00
28354;BME280;15603;50.878;8.036;2023-09-19T06:43:02;144927.25;;;7.04;100.00
28354;BME280;15603;50.878;8.036;2023-09-19T06:45:29;144894.53;;;6.90;100.00
28354;BME280;15603;50.878;8.036;2023-09-19T06:47:58;144958.78;;;7.17;100.00
28354;BME280;15603;50.878;8.036;2023-09-19T06:50:27;144975.75;;;7.24;100.00
28354;BME280;15603;50.878;8.036;2023-09-19T06:52:55;145000.00;;;7.35;100.00
28354;BME280;15603;50.878;8.036;2023-09-19T06:55:25;145000.00;;;7.35;100.00
28354;BME280;15603;50.878;8.036;2023-09-19T06:57:54;144986.66;;;7.29;100.00
28354;BME280;15603;50.878;8.036;2023-09-19T07:00:22;144934.53;;;7.07;100.00
28354;BME280;15603;50.878;8.036;2023-09-19T07:03:02;144997.59;;;7.34;100.00
28354;BME280;15603;50.878;8.036;2023-09-19T07:05:32;145060.66;;;7.60;100.00
28354;BME280;15603;50.878;8.036;2023-09-19T07:08:00;145069.13;;;7.64;100.00
28354;BME280;15603;50.878;8.036;2023-09-19T07:10:30;145033.97;;;7.49;100.00
28354;BME280;15603;50.878;8.036;2023-09-19T07:12:58;145065.50;;;7.62;100.00
28354;BME280;15603;50.878;8.036;2023-09-19T07:15:27;145092.22;;;7.74;100.00
28354;BME280;15603;50.878;8.036;2023-09-19T07:17:55;145036.38;;;7.50;100.00
28354;BME280;15603;50.878;8.036;2023-09-19T07:20:24;145035.19;;;7.50;99.62
28354;BME280;15603;50.878;8.036;2023-09-19T07:22:54;145150.41;;;7.98;100.00
28354;BME280;15603;50.878;8.036;2023-09-19T07:25:27;145160.09;;;8.02;100.00
28354;BME280;15603;50.878;8.036;2023-09-19T07:27:55;145172.25;;;8.07;100.00
28354;BME280;15603;50.878;8.036;2023-09-19T07:30:23;145191.66;;;8.16;100.00
28354;BME280;15603;50.878;8.036;2023-09-19T07:32:50;145245.06;;;8.38;95.83
28354;BME280;15603;50.878;8.036;2023-09-19T07:35:18;145219.59;;;8.28;97.73
28354;BME280;15603;50.878;8.036;2023-09-19T07:37:48;145220.78;;;8.28;95.92
28354;BME280;15603;50.878;8.036;2023-09-19T07:40:19;145112.81;;;7.82;95.36
28354;BME280;15603;50.878;8.036;2023-09-19T07:42:48;145192.91;;;8.16;97.17
28354;BME280;15603;50.878;8.036;2023-09-19T07:45:15;145287.56;;;8.56;93.16
28354;BME280;15603;50.878;8.036;2023-09-19T07:47:48;145265.75;;;8.47;95.72
28354;BME280;15603;50.878;8.036;2023-09-19T07:50:18;145178.28;;;8.10;92.29
28354;BME280;15603;50.878;8.036;2023-09-19T07:52:50;145191.66;;;8.16;93.62
28354;BME280;15603;50.878;8.036;2023-09-19T07:55:20;145150.41;;;7.98;93.32
28354;BME280;15603;50.878;8.036;2023-09-19T07:57:51;145254.78;;;8.42;90.73
28354;BME280;15603;50.878;8.036;2023-09-19T08:00:19;145298.50;;;8.61;91.52
28354;BME280;15603;50.878;8.036;2023-09-19T08:02:46;145282.72;;;8.54;94.33
28354;BME280;15603;50.878;8.036;2023-09-19T08:05:23;145331.28;;;8.75;92.91
28354;BME280;15603;50.878;8.036;2023-09-19T08:07:50;145361.63;;;8.88;89.55
28354;BME280;15603;50.878;8.036;2023-09-19T08:10:19;145400.47;;;9.04;93.54
28354;BME280;15603;50.878;8.036;2023-09-19T08:12:48;145373.75;;;8.93;89.73
28354;BME280;15603;50.878;8.036;2023-09-19T08:15:18;145475.78;;;9.36;89.07
28354;BME280;15603;50.878;8.036;2023-09-19T08:17:48;145487.88;;;9.41;91.39
28354;BME280;15603;50.878;8.036;2023-09-19T08:20:16;145455.09;;;9.27;88.66
28354;BME280;15603;50.878;8.036;2023-09-19T08:22:51;145507.34;;;9.49;91.20
28354;BME280;15603;50.878;8.036;2023-09-19T08:25:23;145514.59;;;9.52;86.99
28354;BME280;15603;50.878;8.036;2023-09-19T08:27:50;145496.41;;;9.44;87.39
28354;BME280;15603;50.878;8.036;2023-09-19T08:30:23;145513.41;;;9.52;87.57
28354;BME280;15603;50.878;8.036;2023-09-19T08:33:01;145538.94;;;9.62;87.39
28354;BME280;15603;50.878;8.036;2023-09-19T08:35:29;145481.81;;;9.38;86.59
28354;BME280;15603;50.878;8.036;2023-09-19T08:37:56;145602.09;;;9.89;89.42
28354;BME280;15603;50.878;8.036;2023-09-19T08:40:23;145614.22;;;9.94;85.01
28354;BME280;15603;50.878;8.036;2023-09-19T08:42:54;145555.91;;;9.70;84.24
28354;BME280;15603;50.878;8.036;2023-09-19T08:45:23;145591.13;;;9.85;88.50
28354;BME280;15603;50.878;8.036;2023-09-19T08:50:36;145609.38;;;9.92;83.71
28354;BME280;15603;50.878;8.036;2023-09-19T08:53:10;145602.09;;;9.89;83.61
28354;BME280;15603;50.878;8.036;2023-09-19T08:55:40;145521.91;;;9.55;84.79
28354;BME280;15603;50.878;8.036;2023-09-19T08:58:10;145535.28;;;9.61;84.29
28354;BME280;15603;50.878;8.036;2023-09-19T09:00:40;145568.06;;;9.75;87.44
28354;BME280;15603;50.878;8.036;2023-09-19T09:03:12;145524.31;;;9.56;84.93
28354;BME280;15603;50.878;8.036;2023-09-19T09:05:42;145501.25;;;9.47;84.15
28354;BME280;15603;50.878;8.036;2023-09-19T09:08:11;145536.47;;;9.61;80.77
28354;BME280;15603;50.878;8.036;2023-09-19T09:10:38;145525.56;;;9.57;84.20
28354;BME280;15603;50.878;8.036;2023-09-19T09:13:09;145523.13;;;9.56;84.15
28354;BME280;15603;50.878;8.036;2023-09-19T09:15:37;145569.28;;;9.75;81.28
28354;BME280;15603;50.878;8.036;2023-09-19T09:18:05;145560.75;;;9.72;80.82
28354;BME280;15603;50.878;8.036;2023-09-19T09:20:32;145546.19;;;9.66;83.21
28354;BME280;15603;50.878;8.036;2023-09-19T09:23:00;145585.09;;;9.82;80.18
28354;BME280;15603;50.878;8.036;2023-09-19T09:25:50;145623.94;;;9.98;80.47
28354;BME280;15603;50.878;8.036;2023-09-19T09:28:24;145666.50;;;10.16;84.14
28354;BME280;15603;50.878;8.036;2023-09-19T09:30:51;145718.78;;;10.38;80.35
28354;BME280;15603;50.878;8.036;2023-09-19T09:33:19;145676.19;;;10.20;79.68
28354;BME280;15603;50.878;8.036;2023-09-19T09:35:53;145769.81;;;10.60;79.91
28354;BME280;15603;50.878;8.036;2023-09-19T09:38:25;145755.22;;;10.54;80.89
28354;BME280;15603;50.878;8.036;2023-09-19T09:40:55;145747.97;;;10.51;79.89
28354;BME280;15603;50.878;8.036;2023-09-19T09:43:38;145766.16;;;10.58;80.46
28354;BME280;15603;50.878;8.036;2023-09-19T09:46:14;145777.13;;;10.63;73.63
28354;BME280;15603;50.878;8.036;2023-09-19T09:51:45;145704.19;;;10.32;80.59
28354;BME280;15603;50.878;8.036;2023-09-19T09:54:28;145724.84;;;10.41;76.59
28354;BME280;15603;50.878;8.036;2023-09-19T09:57:10;145746.72;;;10.50;74.88
28354;BME280;15603;50.878;8.036;2023-09-19T10:02:15;145730.94;;;10.44;74.30
28354;BME280;15603;50.878;8.036;2023-09-19T10:04:52;145721.22;;;10.39;76.08
28354;BME280;15603;50.878;8.036;2023-09-19T10:07:40;145818.44;;;10.80;78.21
28354;BME280;15603;50.878;8.036;2023-09-19T10:10:14;145852.47;;;10.95;77.21
28354;BME280;15603;50.878;8.036;2023-09-19T10:12:44;145790.50;;;10.69;73.83
28354;BME280;15603;50.878;8.036;2023-09-19T10:15:18;145868.28;;;11.02;76.21
28354;BME280;15603;50.878;8.036;2023-09-19T10:17:52;145830.63;;;10.86;77.25
28354;BME280;15603;50.878;8.036;2023-09-19T10:20:26;145818.44;;;10.80;73.05
28354;BME280;15603;50.878;8.036;2023-09-19T10:22:57;145870.69;;;11.03;73.08
28354;BME280;15603;50.878;8.036;2023-09-19T10:25:28;145792.91;;;10.70;75.17
28354;BME280;15603;50.878;8.036;2023-09-19T10:28:02;145799.00;;;10.72;72.71
28354;BME280;15603;50.878;8.036;2023-09-19T10:30:31;145891.38;;;11.11;76.92
28354;BME280;15603;50.878;8.036;2023-09-19T10:33:03;145886.53;;;11.09;74.70
28354;BME280;15603;50.878;8.036;2023-09-19T10:35:32;145865.84;;;11.00;74.84
28354;BME280;15603;50.878;8.036;2023-09-19T10:38:01;145923.00;;;11.25;79.03
28354;BME280;15603;50.878;8.036;2023-09-19T10:40:28;145966.75;;;11.43;76.06
28354;BME280;15603;50.878;8.036;2023-09-19T10:43:03;145931.53;;;11.28;74.72
28354;BME280;15603;50.878;8.036;2023-09-19T10:45:33;145981.38;;;11.49;77.98
28354;BME280;15603;50.878;8.036;2023-09-19T10:48:01;146019.09;;;11.65;75.96
28354;BME280;15603;50.878;8.036;2023-09-19T10:50:33;146013.03;;;11.63;72.54
28354;BME280;15603;50.878;8.036;2023-09-19T10:53:04;146022.75;;;11.67;71.65
28354;BME280;15603;50.878;8.036;2023-09-19T10:55:35;146037.31;;;11.73;74.93
28354;BME280;15603;50.878;8.036;2023-09-19T10:58:04;146020.28;;;11.66;73.59
28354;BME280;15603;50.878;8.036;2023-09-19T11:00:57;146021.50;;;11.66;74.64
28354;BME280;15603;50.878;8.036;2023-09-19T11:03:32;146003.25;;;11.58;73.82
28354;BME280;15603;50.878;8.036;2023-09-19T11:06:05;146067.75;;;11.86;70.63
28354;BME280;15603;50.878;8.036;2023-09-19T11:08:58;146022.75;;;11.67;68.79
28354;BME280;15603;50.878;8.036;2023-09-19T11:11:45;145949.78;;;11.36;68.79
28354;BME280;15603;50.878;8.036;2023-09-19T11:30:39;145963.16;;;11.42;72.27
28354;BME280;15603;50.878;8.036;2023-09-19T11:33:27;146050.72;;;11.78;67.71
28354;BME280;15603;50.878;8.036;2023-09-19T11:36:16;146088.47;;;11.94;71.43
28354;BME280;15603;50.878;8.036;2023-09-19T11:43:52;146210.16;;;12.46;68.25
28354;BME280;15603;50.878;8.036;2023-09-19T11:46:24;146193.09;;;12.38;68.31
28354;BME280;15603;50.878;8.036;2023-09-19T11:48:51;146137.13;;;12.15;69.02
28354;BME280;15603;50.878;8.036;2023-09-19T11:51:23;146149.28;;;12.20;68.73
28354;BME280;15603;50.878;8.036;2023-09-19T11:53:58;146073.81;;;11.88;67.45
28354;BME280;15603;50.878;8.036;2023-09-19T11:56:28;146059.22;;;11.82;66.61
28354;BME280;15603;50.878;8.036;2023-09-19T11:58:56;146044.66;;;11.76;68.62
28354;BME280;15603;50.878;8.036;2023-09-19T12:01:32;146068.97;;;11.86;75.21
28354;BME280;15603;50.878;8.036;2023-09-19T12:04:02;146025.16;;;11.68;68.55
28354;BME280;15603;50.878;8.036;2023-09-19T12:06:31;146034.88;;;11.72;68.15
28354;BME280;15603;50.878;8.036;2023-09-19T12:09:03;146039.75;;;11.74;67.51
28354;BME280;15603;50.878;8.036;2023-09-19T12:11:41;146056.78;;;11.81;68.58
28354;BME280;15603;50.878;8.036;2023-09-19T12:14:11;146070.16;;;11.87;67.58
28354;BME280;15603;50.878;8.036;2023-09-19T12:16:38;146095.78;;;11.97;65.38
28354;BME280;15603;50.878;8.036;2023-09-19T12:19:19;146066.50;;;11.85;63.72
28354;BME280;15603;50.878;8.036;2023-09-19T12:21:57;146026.41;;;11.68;65.26
28354;BME280;15603;50.878;8.036;2023-09-19T12:24:26;146017.88;;;11.65;64.80
28354;BME280;15603;50.878;8.036;2023-09-19T12:27:04;146107.91;;;12.03;64.59
28354;BME280;15603;50.878;8.036;2023-09-19T12:29:44;146122.56;;;12.09;63.80
28354;BME280;15603;50.878;8.036;2023-09-19T12:32:12;146132.28;;;12.13;64.73
28354;BME280;15603;50.878;8.036;2023-09-19T12:34:41;146144.41;;;12.18;67.65
28354;BME280;15603;50.878;8.036;2023-09-19T12:37:10;146111.56;;;12.04;67.01
28354;BME280;15603;50.878;8.036;2023-09-19T12:39:40;146094.53;;;11.97;64.04
28354;BME280;15603;50.878;8.036;2023-09-19T12:42:11;146078.72;;;11.90;68.01
28354;BME280;15603;50.878;8.036;2023-09-19T12:44:44;146179.72;;;12.33;66.58
28354;BME280;15603;50.878;8.036;2023-09-19T12:47:16;146146.88;;;12.19;63.24
28354;BME280;15603;50.878;8.036;2023-09-19T12:50:05;146167.53;;;12.28;67.25
28354;BME280;15603;50.878;8.036;2023-09-19T12:52:41;146176.06;;;12.31;67.60
28354;BME280;15603;50.878;8.036;2023-09-19T12:55:26;146202.84;;;12.43;65.08
28354;BME280;15603;50.878;8.036;2023-09-19T13:00:33;146154.19;;;12.22;62.37
28354;BME280;15603;50.878;8.036;2023-09-19T13:05:56;146183.38;;;12.34;65.80
28354;BME280;15603;50.878;8.036;2023-09-19T13:11:08;146200.44;;;12.42;62.45
28354;BME280;15603;50.878;8.036;2023-09-19T13:13:47;145992.31;;;11.54;62.96
28354;BME280;15603;50.878;8.036;2023-09-19T13:16:22;146055.56;;;11.81;63.86
28354;BME280;15603;50.878;8.036;2023-09-19T13:18:53;146183.38;;;12.34;63.97
28354;BME280;15603;50.878;8.036;2023-09-19T13:21:33;146171.19;;;12.29;60.47
28354;BME280;15603;50.878;8.036;2023-09-19T13:26:47;146042.19;;;11.75;65.19
28354;BME280;15603;50.878;8.036;2023-09-19T13:29:14;146037.31;;;11.73;62.74
28354;BME280;15603;50.878;8.036;2023-09-19T13:31:49;146026.41;;;11.68;63.81
28354;BME280;15603;50.878;8.036;2023-09-19T13:34:16;146054.38;;;11.80;62.24
28354;BME280;15603;50.878;8.036;2023-09-19T13:36:44;146044.66;;;11.76;64.13
28354;BME280;15603;50.878;8.036;2023-09-19T13:39:11;146049.50;;;11.78;63.98
28354;BME280;15603;50.878;8.036;2023-09-19T13:41:47;146110.38;;;12.04;61.58
28354;BME280;15603;50.878;8.036;2023-09-19T13:44:15;146051.91;;;11.79;62.23
28354;BME280;15603;50.878;8.036;2023-09-19T13:46:44;146094.53;;;11.97;60.12
28354;BME280;15603;50.878;8.036;2023-09-19T13:49:14;146088.47;;;11.94;60.41
28354;BME280;15603;50.878;8.036;2023-09-19T13:51:41;146127.41;;;12.11;61.84
28354;BME280;15603;50.878;8.036;2023-09-19T13:54:12;146144.41;;;12.18;63.87
28354;BME280;15603;50.878;8.036;2023-09-19T13:56:39;146120.09;;;12.08;63.05
28354;BME280;15603;50.878;8.036;2023-09-19T13:59:06;146131.03;;;12.12;63.95
28354;BME280;15603;50.878;8.036;2023-09-19T14:01:34;145991.13;;;11.53;59.98